createdAt,value
2023-02-07T00:00:41.427Z,2.59
2023-02-07T00:01:41.524Z,2.61
2023-02-07T00:02:41.401Z,2.65
2023-02-07T00:03:41.394Z,2.63
2023-02-07T00:04:41.394Z,2.56
2023-02-07T00:55:27.349Z,0.50
2023-02-07T00:56:28.208Z,0.50
2023-02-07T00:57:28.204Z,0.50
2023-02-07T00:58:28.187Z,0.50
2023-02-07T00:59:28.181Z,0.50
2023-02-07T01:00:28.203Z,0.50
2023-02-07T01:01:28.237Z,0.38
2023-02-07T01:02:28.158Z,0.34
2023-02-07T01:03:28.144Z,0.34
2023-02-07T01:04:28.174Z,0.34
2023-02-07T01:05:28.144Z,0.34
2023-02-07T01:06:28.186Z,0.36
2023-02-07T01:07:28.114Z,0.39
2023-02-07T01:08:28.108Z,0.43
2023-02-07T01:09:28.095Z,0.49
2023-02-07T01:10:28.103Z,0.50
2023-02-07T01:11:28.177Z,0.50
2023-02-07T01:12:28.069Z,0.50
2023-02-07T01:13:28.064Z,0.50
2023-02-07T01:14:28.058Z,0.50
2023-02-07T01:15:28.092Z,0.50
2023-02-07T01:16:28.080Z,0.50
2023-02-07T01:17:28.030Z,0.50
2023-02-07T01:18:28.020Z,0.51
2023-02-07T01:19:28.016Z,0.51
2023-02-07T01:20:28.001Z,0.50
2023-02-07T01:21:28.001Z,0.51
2023-02-07T01:22:27.988Z,0.50
2023-02-07T01:23:27.979Z,0.50
2023-02-07T01:24:27.970Z,0.52
2023-02-07T01:25:27.960Z,0.50
2023-02-07T01:26:27.955Z,0.50
2023-02-07T01:27:27.967Z,0.51
2023-02-07T01:28:27.935Z,0.50
2023-02-07T01:29:27.959Z,0.50
2023-02-07T01:30:27.922Z,0.51
2023-02-07T01:31:27.986Z,0.51
2023-02-07T01:32:27.905Z,0.51
2023-02-07T01:33:27.902Z,0.52
2023-02-07T01:34:27.899Z,0.51
2023-02-07T01:35:27.881Z,0.52
2023-02-07T01:36:27.873Z,0.51
2023-02-07T01:37:27.859Z,0.51
2023-02-07T01:38:27.852Z,0.50
2023-02-07T01:39:27.840Z,0.50
2023-02-07T01:40:27.832Z,0.51
2023-02-07T01:41:27.826Z,0.50
2023-02-07T01:42:27.825Z,0.51
2023-02-07T01:43:27.832Z,0.50
2023-02-07T01:44:27.795Z,0.51
2023-02-07T01:45:27.786Z,0.51
2023-02-07T01:46:27.808Z,0.52
2023-02-07T01:47:27.771Z,0.52
2023-02-07T01:48:27.759Z,0.51
2023-02-07T01:49:27.755Z,0.50
2023-02-07T01:50:27.744Z,0.52
2023-02-07T01:51:27.731Z,0.51
2023-02-07T01:52:27.731Z,0.52
2023-02-07T01:53:27.714Z,0.52
2023-02-07T01:54:27.710Z,0.50
2023-02-07T01:55:27.706Z,0.51
2023-02-07T01:56:31.869Z,0.51
2023-02-07T01:57:27.963Z,0.51
2023-02-07T01:58:27.803Z,0.51
2023-02-07T01:59:27.832Z,0.51
2023-02-07T02:00:27.796Z,0.51
2023-02-07T02:01:27.831Z,0.51
2023-02-07T02:02:27.864Z,0.51
2023-02-07T02:03:27.760Z,0.51
2023-02-07T02:04:27.751Z,0.50
2023-02-07T02:05:27.756Z,0.51
2023-02-07T02:06:27.740Z,0.51
2023-02-07T02:07:27.725Z,0.52
2023-02-07T02:08:27.721Z,0.51
2023-02-07T02:09:27.716Z,0.50
2023-02-07T02:10:27.706Z,0.51
2023-02-07T02:11:27.690Z,0.51
2023-02-07T02:12:27.682Z,0.52
2023-02-07T02:13:27.679Z,0.53
2023-02-07T02:14:27.670Z,0.51
2023-02-07T02:15:27.685Z,0.51
2023-02-07T02:16:27.655Z,0.51
2023-02-07T02:17:27.642Z,0.51
2023-02-07T02:18:27.628Z,0.52
2023-02-07T02:19:27.705Z,0.52
2023-02-07T02:20:27.639Z,0.51
2023-02-07T02:21:27.604Z,0.51
2023-02-07T02:22:27.603Z,0.53
2023-02-07T02:23:27.599Z,0.52
2023-02-07T02:24:27.590Z,0.52
2023-02-07T02:25:27.574Z,0.51
2023-02-07T02:26:27.568Z,0.52
2023-02-07T02:27:27.559Z,0.52
2023-02-07T02:28:27.545Z,0.52
2023-02-07T02:29:27.538Z,0.52
2023-02-07T02:30:27.602Z,0.51
2023-02-07T02:31:27.622Z,0.51
2023-02-07T02:32:27.515Z,0.50
2023-02-07T02:33:27.543Z,0.50
2023-02-07T02:34:27.505Z,0.52
2023-02-07T02:35:27.481Z,0.52
2023-02-07T02:36:27.476Z,0.51
2023-02-07T02:37:27.469Z,0.52
2023-02-07T02:38:27.467Z,0.51
2023-02-07T02:39:27.452Z,0.51
2023-02-07T02:40:27.445Z,0.52
2023-02-07T02:41:27.434Z,0.51
2023-02-07T02:42:27.457Z,0.51
2023-02-07T02:43:27.412Z,0.51
2023-02-07T02:44:27.415Z,0.50
2023-02-07T02:45:27.397Z,0.51
2023-02-07T02:46:27.424Z,0.51
2023-02-07T02:47:27.407Z,0.51
2023-02-07T02:48:27.377Z,0.51
2023-02-07T02:49:27.367Z,0.52
2023-02-07T02:50:27.358Z,0.52
2023-02-07T02:51:27.346Z,0.51
2023-02-07T02:52:40.506Z,0.51
2023-02-07T02:53:27.335Z,0.51
2023-02-07T02:54:27.333Z,0.51
2023-02-07T02:55:27.323Z,0.51
2023-02-07T02:56:27.304Z,0.52
2023-02-07T02:57:27.294Z,0.52
2023-02-07T02:58:27.288Z,0.53
2023-02-07T02:59:27.280Z,0.52
2023-02-07T03:00:27.281Z,0.53
2023-02-07T03:01:27.353Z,0.50
2023-02-07T03:02:27.251Z,0.52
2023-02-07T03:03:27.274Z,0.53
2023-02-07T03:04:27.238Z,0.52
2023-02-07T03:05:27.323Z,0.52
2023-02-07T03:06:27.221Z,0.51
2023-02-07T03:07:27.210Z,0.51
2023-02-07T03:08:27.203Z,0.53
2023-02-07T03:09:27.206Z,0.51
2023-02-07T03:10:27.225Z,0.51
2023-02-07T03:11:27.189Z,0.52
2023-02-07T03:12:27.175Z,0.51
2023-02-07T03:13:27.169Z,0.51
2023-02-07T03:14:27.166Z,0.51
2023-02-07T03:15:27.146Z,0.51
2023-02-07T03:16:27.207Z,0.52
2023-02-07T03:17:27.126Z,0.53
2023-02-07T03:18:27.121Z,0.52
2023-02-07T03:19:27.131Z,0.51
2023-02-07T03:20:27.101Z,0.52
2023-02-07T03:21:27.088Z,0.51
2023-02-07T03:22:27.087Z,0.52
2023-02-07T03:23:27.070Z,0.52
2023-02-07T03:24:27.064Z,0.51
2023-02-07T03:25:27.054Z,0.51
2023-02-07T03:26:27.045Z,0.51
2023-02-07T03:27:27.037Z,0.52
2023-02-07T03:28:27.033Z,0.51
2023-02-07T03:29:27.026Z,0.52
2023-02-07T03:30:27.064Z,0.52
2023-02-07T03:31:27.035Z,0.52
2023-02-07T03:32:26.991Z,0.51
2023-02-07T03:33:26.995Z,0.51
2023-02-07T03:34:26.980Z,0.51
2023-02-07T03:35:26.998Z,0.52
2023-02-07T03:36:26.959Z,0.52
2023-02-07T03:37:26.954Z,0.51
2023-02-07T03:38:26.936Z,0.52
2023-02-07T03:39:26.937Z,0.51
2023-02-07T03:40:26.935Z,0.50
2023-02-07T03:41:26.913Z,0.52
2023-02-07T03:42:26.915Z,0.53
2023-02-07T03:43:26.897Z,0.54
2023-02-07T03:44:26.899Z,0.52
2023-02-07T03:45:26.873Z,0.53
2023-02-07T03:46:26.905Z,0.52
2023-02-07T03:47:26.922Z,0.51
2023-02-07T03:48:26.868Z,0.53
2023-02-07T03:49:26.852Z,0.52
2023-02-07T03:50:26.840Z,0.51
2023-02-07T03:51:26.853Z,0.50
2023-02-07T03:52:26.825Z,0.52
2023-02-07T03:53:26.814Z,0.51
2023-02-07T03:54:26.803Z,0.52
2023-02-07T03:55:26.796Z,0.53
2023-02-07T03:56:26.788Z,0.51
2023-02-07T03:57:26.785Z,0.52
2023-02-07T03:58:26.772Z,0.51
2023-02-07T03:59:26.771Z,0.52
2023-02-07T04:00:26.751Z,0.51
2023-02-07T04:01:26.748Z,0.51
2023-02-07T04:02:26.821Z,0.50
2023-02-07T04:03:26.746Z,0.52
2023-02-07T04:04:26.722Z,0.52
2023-02-07T04:05:26.712Z,0.52
2023-02-07T04:06:26.703Z,0.53
2023-02-07T04:07:26.721Z,0.51
2023-02-07T04:08:27.360Z,0.51
2023-02-07T04:09:26.684Z,0.51
2023-02-07T04:10:26.675Z,0.52
2023-02-07T04:11:26.660Z,0.53
2023-02-07T04:12:26.655Z,0.52
2023-02-07T04:13:26.650Z,0.52
2023-02-07T04:14:26.639Z,0.53
2023-02-07T04:15:26.703Z,0.52
2023-02-07T04:16:26.673Z,0.52
2023-02-07T04:17:26.622Z,0.52
2023-02-07T04:18:26.600Z,0.52
2023-02-07T04:19:26.591Z,0.51
2023-02-07T04:20:26.584Z,0.52
2023-02-07T04:21:26.579Z,0.54
2023-02-07T04:22:26.564Z,0.53
2023-02-07T04:23:26.589Z,0.51
2023-02-07T04:24:26.552Z,0.53
2023-02-07T04:25:26.543Z,0.52
2023-02-07T04:26:26.536Z,0.52
2023-02-07T04:27:26.524Z,0.52
2023-02-07T04:28:26.515Z,0.52
2023-02-07T04:29:26.515Z,0.52
2023-02-07T04:30:26.519Z,0.53
2023-02-07T04:31:26.527Z,0.52
2023-02-07T04:32:26.484Z,0.52
2023-02-07T04:33:26.472Z,0.52
2023-02-07T04:34:26.474Z,0.51
2023-02-07T04:35:26.451Z,0.51
2023-02-07T04:36:26.442Z,0.52
2023-02-07T04:37:26.442Z,0.53
2023-02-07T04:38:26.445Z,0.53
2023-02-07T04:39:26.463Z,0.52
2023-02-07T04:40:26.408Z,0.53
2023-02-07T04:41:26.396Z,0.51
2023-02-07T04:42:26.392Z,0.52
2023-02-07T04:43:26.386Z,0.53
2023-02-07T04:44:26.373Z,0.52
2023-02-07T04:45:26.439Z,0.53
2023-02-07T04:46:26.357Z,0.52
2023-02-07T04:47:26.349Z,0.53
2023-02-07T04:48:26.341Z,0.53
2023-02-07T04:49:26.338Z,0.52
2023-02-07T04:50:26.326Z,0.53
2023-02-07T04:51:26.313Z,0.52
2023-02-07T04:52:26.305Z,0.53
2023-02-07T04:53:26.317Z,0.52
2023-02-07T04:54:26.289Z,0.53
2023-02-07T04:55:26.304Z,0.52
2023-02-07T04:56:26.269Z,0.52
2023-02-07T04:57:26.258Z,0.52
2023-02-07T04:58:26.260Z,0.53
2023-02-07T04:59:26.243Z,0.51
2023-02-07T05:00:26.290Z,0.53
2023-02-07T05:01:26.299Z,0.54
2023-02-07T05:02:26.222Z,0.52
2023-02-07T05:03:26.212Z,0.52
2023-02-07T05:04:26.285Z,0.53
2023-02-07T05:05:26.195Z,0.52
2023-02-07T05:06:26.188Z,0.52
2023-02-07T05:07:26.181Z,0.52
2023-02-07T05:08:26.428Z,0.52
2023-02-07T05:09:26.165Z,0.52
2023-02-07T05:10:26.208Z,0.52
2023-02-07T05:11:26.166Z,0.52
2023-02-07T05:12:26.136Z,0.52
2023-02-07T05:13:26.130Z,0.51
2023-02-07T05:14:26.119Z,0.52
2023-02-07T05:15:26.170Z,0.52
2023-02-07T05:16:26.165Z,0.52
2023-02-07T05:17:26.094Z,0.52
2023-02-07T05:18:26.085Z,0.51
2023-02-07T05:19:26.080Z,0.52
2023-02-07T05:20:26.074Z,0.52
2023-02-07T05:21:26.061Z,0.51
2023-02-07T05:22:26.051Z,0.51
2023-02-07T05:23:26.052Z,0.51
2023-02-07T05:24:26.049Z,0.51
2023-02-07T05:25:26.024Z,0.52
2023-02-07T05:26:26.018Z,0.52
2023-02-07T05:27:26.036Z,0.52
2023-02-07T05:28:26.006Z,0.51
2023-02-07T05:29:25.997Z,0.52
2023-02-07T05:30:25.991Z,0.51
2023-02-07T05:31:26.079Z,0.51
2023-02-07T05:32:26.705Z,0.52
2023-02-07T05:33:25.955Z,0.51
2023-02-07T05:34:25.952Z,0.51
2023-02-07T05:35:25.941Z,0.52
2023-02-07T05:36:25.934Z,0.52
2023-02-07T05:37:25.920Z,0.53
2023-02-07T05:38:25.918Z,0.52
2023-02-07T05:39:25.898Z,0.51
2023-02-07T05:40:26.046Z,0.52
2023-02-07T05:41:25.890Z,0.50
2023-02-07T05:42:25.876Z,0.50
2023-02-07T05:43:25.903Z,0.51
2023-02-07T05:44:25.858Z,0.51
2023-02-07T05:45:25.864Z,0.52
2023-02-07T05:46:25.884Z,0.53
2023-02-07T05:47:25.829Z,0.53
2023-02-07T05:48:25.820Z,0.52
2023-02-07T05:49:25.816Z,0.51
2023-02-07T05:50:25.807Z,0.50
2023-02-07T05:51:25.805Z,0.52
2023-02-07T05:52:25.788Z,0.52
2023-02-07T05:53:25.786Z,0.51
2023-02-07T05:54:25.770Z,0.52
2023-02-07T05:55:25.786Z,0.52
2023-02-07T05:56:25.759Z,0.51
2023-02-07T05:57:25.750Z,0.52
2023-02-07T05:58:25.736Z,0.54
2023-02-07T05:59:25.751Z,0.52
2023-02-07T06:00:25.744Z,0.51
2023-02-07T06:01:25.713Z,0.52
2023-02-07T06:02:25.756Z,0.52
2023-02-07T06:03:25.700Z,0.53
2023-02-07T06:04:25.682Z,0.53
2023-02-07T06:05:25.682Z,0.52
2023-02-07T06:06:25.903Z,0.51
2023-02-07T06:07:25.669Z,0.52
2023-02-07T06:08:25.652Z,0.53
2023-02-07T06:09:25.639Z,0.52
2023-02-07T06:10:25.626Z,0.53
2023-02-07T06:11:25.623Z,0.52
2023-02-07T06:12:25.613Z,0.53
2023-02-07T06:13:25.614Z,0.52
2023-02-07T06:14:25.597Z,0.52
2023-02-07T06:15:25.657Z,0.53
2023-02-07T06:16:25.580Z,0.54
2023-02-07T06:17:25.570Z,0.53
2023-02-07T06:18:25.573Z,0.53
2023-02-07T06:19:25.909Z,0.52
2023-02-07T06:20:25.547Z,0.52
2023-02-07T06:21:31.962Z,0.52
2023-02-07T06:22:26.007Z,0.52
2023-02-07T06:23:25.570Z,0.52
2023-02-07T06:24:25.920Z,0.52
2023-02-07T06:25:25.568Z,0.52
2023-02-07T06:26:25.914Z,0.52
2023-02-07T06:27:25.496Z,0.52
2023-02-07T06:28:25.474Z,0.52
2023-02-07T06:29:25.479Z,0.53
2023-02-07T06:30:25.912Z,0.53
2023-02-07T06:31:26.153Z,0.52
2023-02-07T06:32:25.450Z,0.53
2023-02-07T06:33:25.914Z,0.54
2023-02-07T06:34:25.438Z,0.53
2023-02-07T06:35:25.424Z,0.53
2023-02-07T06:36:25.417Z,0.54
2023-02-07T06:37:25.406Z,0.53
2023-02-07T06:38:25.400Z,0.53
2023-02-07T06:39:25.420Z,0.53
2023-02-07T06:40:25.400Z,0.54
2023-02-07T06:41:25.393Z,0.54
2023-02-07T06:42:25.414Z,0.55
2023-02-07T06:43:25.571Z,0.54
2023-02-07T06:44:25.892Z,0.53
2023-02-07T06:45:25.330Z,0.54
2023-02-07T06:46:25.394Z,0.54
2023-02-07T06:47:25.440Z,0.54
2023-02-07T06:48:26.295Z,0.53
2023-02-07T06:49:25.336Z,0.56
2023-02-07T06:50:25.300Z,0.56
2023-02-07T06:51:25.318Z,0.58
2023-02-07T06:52:25.426Z,0.59
2023-02-07T06:53:25.267Z,0.63
2023-02-07T06:54:25.265Z,0.63
2023-02-07T06:55:25.350Z,0.66
2023-02-07T06:56:25.422Z,0.65
2023-02-07T06:57:25.238Z,0.67
2023-02-07T06:58:25.580Z,0.70
2023-02-07T06:59:25.218Z,0.73
2023-02-07T07:00:25.207Z,0.74
2023-02-07T07:01:25.216Z,0.75
2023-02-07T07:02:25.241Z,0.77
2023-02-07T07:03:25.451Z,0.81
2023-02-07T07:04:25.168Z,0.85
2023-02-07T07:05:25.166Z,0.88
2023-02-07T07:06:25.156Z,0.93
2023-02-07T07:07:25.155Z,0.94
2023-02-07T07:08:25.457Z,0.94
2023-02-07T07:09:25.161Z,0.96
2023-02-07T07:10:25.283Z,0.99
2023-02-07T07:11:25.114Z,1.02
2023-02-07T07:12:25.468Z,1.00
2023-02-07T07:13:25.100Z,0.78
2023-02-07T07:14:25.090Z,0.64
2023-02-07T07:15:25.071Z,0.64
2023-02-07T07:16:25.990Z,0.68
2023-02-07T07:17:25.455Z,0.61
2023-02-07T07:18:25.082Z,0.56
2023-02-07T07:19:25.098Z,0.56
2023-02-07T07:20:25.070Z,0.50
2023-02-07T07:21:25.036Z,0.50
2023-02-07T07:22:25.664Z,0.52
2023-02-07T07:23:25.036Z,0.53
2023-02-07T07:24:25.039Z,0.53
2023-02-07T07:25:25.043Z,0.53
2023-02-07T07:26:25.019Z,0.54
2023-02-07T07:27:25.000Z,0.56
2023-02-07T07:28:24.966Z,0.63
2023-02-07T07:29:24.981Z,0.62
2023-02-07T07:30:24.958Z,0.55
2023-02-07T07:31:24.965Z,0.52
2023-02-07T07:32:33.695Z,0.52
2023-02-07T07:33:24.927Z,0.52
2023-02-07T07:34:24.940Z,0.49
2023-02-07T07:35:24.936Z,0.48
2023-02-07T07:36:24.894Z,0.48
2023-02-07T07:38:24.874Z,0.47
2023-02-07T07:39:24.941Z,0.46
2023-02-07T07:40:24.857Z,0.46
2023-02-07T07:41:24.858Z,0.46
2023-02-07T07:42:24.978Z,0.47
2023-02-07T07:43:24.836Z,0.53
2023-02-07T07:44:25.807Z,0.54
2023-02-07T07:45:24.943Z,0.53
2023-02-07T07:46:24.851Z,0.53
2023-02-07T07:47:24.791Z,0.53
2023-02-07T07:48:25.018Z,0.52
2023-02-07T07:49:24.773Z,0.52
2023-02-07T07:50:24.789Z,0.54
2023-02-07T07:51:24.990Z,0.55
2023-02-07T07:52:24.769Z,0.55
2023-02-07T07:53:24.946Z,0.57
2023-02-07T07:54:24.728Z,0.58
2023-02-07T07:55:25.439Z,0.59
2023-02-07T07:56:24.707Z,0.61
2023-02-07T07:57:24.706Z,0.61
2023-02-07T07:58:24.948Z,0.61
2023-02-07T07:59:24.688Z,0.62
2023-02-07T08:00:24.669Z,0.63
2023-02-07T08:01:24.696Z,0.64
2023-02-07T08:02:24.956Z,0.64
2023-02-07T08:03:24.952Z,0.65
2023-02-07T08:04:24.638Z,0.66
2023-02-07T08:05:24.636Z,0.66
2023-02-07T08:06:24.633Z,0.67
2023-02-07T08:07:24.633Z,0.67
2023-02-07T08:08:24.950Z,0.67
2023-02-07T08:09:24.623Z,0.67
2023-02-07T08:10:24.617Z,0.66
2023-02-07T08:11:24.602Z,0.68
2023-02-07T08:12:24.984Z,0.68
2023-02-07T08:13:27.522Z,0.68
2023-02-07T08:14:24.585Z,0.68
2023-02-07T08:15:24.540Z,0.68
2023-02-07T08:16:24.582Z,0.68
2023-02-07T08:17:25.946Z,0.69
2023-02-07T08:18:24.517Z,0.71
2023-02-07T08:19:24.519Z,0.68
2023-02-07T08:20:24.501Z,0.69
2023-02-07T08:21:24.489Z,0.69
2023-02-07T08:22:24.977Z,0.70
2023-02-07T08:23:24.506Z,0.67
2023-02-07T08:24:24.468Z,0.69
2023-02-07T08:25:24.470Z,0.69
2023-02-07T08:26:24.487Z,0.68
2023-02-07T08:27:24.470Z,0.68
2023-02-07T08:28:24.435Z,0.68
2023-02-07T08:29:24.422Z,0.68
2023-02-07T08:30:24.443Z,0.69
2023-02-07T08:31:24.505Z,0.69
2023-02-07T08:32:24.423Z,0.69
2023-02-07T08:33:24.462Z,0.69
2023-02-07T08:34:24.464Z,0.69
2023-02-07T08:35:24.378Z,0.69
2023-02-07T08:36:24.366Z,0.70
2023-02-07T08:37:24.355Z,0.67
2023-02-07T08:38:24.351Z,0.68
2023-02-07T08:39:24.505Z,0.68
2023-02-07T08:40:24.366Z,0.67
2023-02-07T08:41:24.337Z,0.68
2023-02-07T08:42:24.322Z,0.74
2023-02-07T08:43:24.507Z,0.73
2023-02-07T08:44:24.473Z,0.72
2023-02-07T08:45:24.388Z,0.74
2023-02-07T08:46:25.325Z,0.73
2023-02-07T08:47:24.289Z,0.76
2023-02-07T08:48:24.270Z,0.80
2023-02-07T08:49:24.464Z,0.81
2023-02-07T08:50:24.243Z,0.82
2023-02-07T08:51:24.464Z,0.84
2023-02-07T08:52:25.262Z,0.84
2023-02-07T08:53:24.470Z,0.85
2023-02-07T08:54:24.475Z,0.88
2023-02-07T08:55:24.223Z,0.86
2023-02-07T08:56:24.202Z,0.91
2023-02-07T08:57:24.183Z,0.89
2023-02-07T08:58:24.183Z,0.91
2023-02-07T08:59:24.486Z,0.89
2023-02-07T09:00:24.364Z,0.91
2023-02-07T09:01:25.247Z,0.93
2023-02-07T09:02:24.184Z,0.93
2023-02-07T09:03:24.146Z,0.94
2023-02-07T09:04:24.485Z,0.98
2023-02-07T09:05:24.111Z,0.97
2023-02-07T09:06:24.104Z,0.96
2023-02-07T09:07:24.102Z,1.00
2023-02-07T09:08:24.088Z,1.02
2023-02-07T09:09:24.477Z,1.01
2023-02-07T09:10:24.107Z,1.00
2023-02-07T09:11:24.129Z,1.04
2023-02-07T09:12:24.078Z,1.05
2023-02-07T09:13:24.431Z,1.07
2023-02-07T09:14:24.514Z,1.05
2023-02-07T09:15:24.037Z,1.09
2023-02-07T09:16:24.194Z,1.11
2023-02-07T09:17:24.040Z,1.10
2023-02-07T09:18:24.005Z,1.11
2023-02-07T09:19:23.996Z,1.10
2023-02-07T09:20:24.078Z,1.11
2023-02-07T09:21:24.000Z,1.15
2023-02-07T09:22:23.975Z,1.15
2023-02-07T09:23:23.982Z,1.19
2023-02-07T09:24:23.969Z,1.18
2023-02-07T09:25:23.982Z,1.16
2023-02-07T09:26:23.968Z,1.21
2023-02-07T09:27:23.943Z,1.21
2023-02-07T09:28:24.265Z,1.23
2023-02-07T09:29:23.993Z,1.24
2023-02-07T09:30:23.903Z,1.28
2023-02-07T09:31:23.969Z,1.26
2023-02-07T09:32:23.896Z,1.26
2023-02-07T09:33:23.920Z,1.26
2023-02-07T09:34:23.986Z,1.31
2023-02-07T09:35:23.858Z,1.31
2023-02-07T09:36:23.908Z,1.36
2023-02-07T09:37:23.844Z,1.37
2023-02-07T09:38:23.845Z,1.39
2023-02-07T09:39:23.993Z,1.41
2023-02-07T09:40:23.997Z,1.41
2023-02-07T09:41:23.811Z,1.46
2023-02-07T09:42:25.104Z,1.50
2023-02-07T09:43:24.000Z,1.46
2023-02-07T09:44:24.226Z,1.48
2023-02-07T09:45:24.084Z,1.51
2023-02-07T09:46:23.865Z,1.56
2023-02-07T09:47:23.804Z,1.56
2023-02-07T09:48:23.746Z,1.57
2023-02-07T09:49:24.022Z,1.63
2023-02-07T09:50:23.997Z,1.64
2023-02-07T09:51:23.726Z,1.64
2023-02-07T09:52:23.935Z,1.62
2023-02-07T09:53:23.713Z,1.62
2023-02-07T09:54:24.009Z,1.58
2023-02-07T09:55:23.686Z,1.64
2023-02-07T09:56:23.675Z,1.64
2023-02-07T09:57:23.685Z,1.68
2023-02-07T09:58:23.660Z,1.66
2023-02-07T09:59:24.063Z,1.70
2023-02-07T10:00:23.645Z,1.71
2023-02-07T10:01:23.668Z,1.77
2023-02-07T10:02:23.658Z,1.79
2023-02-07T10:03:23.998Z,1.81
2023-02-07T10:04:23.603Z,1.79
2023-02-07T10:05:23.999Z,1.79
2023-02-07T10:06:23.590Z,1.86
2023-02-07T10:07:23.578Z,1.89
2023-02-07T10:08:28.345Z,1.86
2023-02-07T10:09:23.559Z,1.87
2023-02-07T10:10:23.997Z,1.89
2023-02-07T10:11:23.556Z,1.92
2023-02-07T10:12:23.534Z,1.97
2023-02-07T10:13:23.531Z,2.04
2023-02-07T10:14:23.518Z,2.06
2023-02-07T10:15:24.047Z,2.06
2023-02-07T10:16:23.507Z,2.11
2023-02-07T10:17:31.100Z,2.10
2023-02-07T10:18:23.514Z,2.11
2023-02-07T10:19:23.483Z,2.13
2023-02-07T10:20:23.500Z,2.16
2023-02-07T10:21:23.455Z,2.18
2023-02-07T10:22:23.483Z,2.21
2023-02-07T10:23:23.473Z,2.26
2023-02-07T10:24:23.430Z,2.24
2023-02-07T10:25:23.527Z,2.30
2023-02-07T10:26:23.435Z,2.33
2023-02-07T10:27:23.406Z,2.23
2023-02-07T10:28:23.419Z,2.11
2023-02-07T10:29:23.392Z,2.23
2023-02-07T10:30:23.560Z,2.27
2023-02-07T10:31:23.511Z,2.31
2023-02-07T10:32:23.359Z,2.31
2023-02-07T10:33:23.347Z,2.32
2023-02-07T10:34:23.342Z,2.30
2023-02-07T10:35:23.535Z,2.34
2023-02-07T10:36:23.510Z,2.36
2023-02-07T10:37:23.320Z,2.35
2023-02-07T10:38:26.513Z,2.40
2023-02-07T10:39:24.288Z,2.40
2023-02-07T10:40:23.292Z,2.41
2023-02-07T10:41:23.515Z,2.42
2023-02-07T10:42:23.272Z,2.44
2023-02-07T10:43:23.641Z,2.38
2023-02-07T10:44:23.262Z,2.39
2023-02-07T10:45:23.255Z,2.40
2023-02-07T10:46:23.302Z,2.36
2023-02-07T10:47:23.535Z,2.40
2023-02-07T10:48:23.222Z,2.17
2023-02-07T10:49:26.019Z,0.60
2023-02-07T10:50:29.695Z,0.49
2023-02-07T10:51:23.521Z,0.61
2023-02-07T10:52:24.199Z,0.66
2023-02-07T10:53:23.179Z,0.74
2023-02-07T10:54:23.166Z,0.93
2023-02-07T10:55:23.165Z,1.40
2023-02-07T10:56:23.515Z,1.64
2023-02-07T10:57:23.142Z,1.72
2023-02-07T10:58:23.993Z,1.70
2023-02-07T10:59:23.126Z,1.72
2023-02-07T11:00:23.121Z,1.74
2023-02-07T11:01:23.600Z,1.78
2023-02-07T11:02:23.122Z,1.79
2023-02-07T11:03:26.758Z,1.80
2023-02-07T11:04:23.079Z,1.81
2023-02-07T11:05:23.079Z,1.82
2023-02-07T11:06:23.059Z,1.85
2023-02-07T11:07:23.061Z,1.89
2023-02-07T11:08:23.525Z,1.94
2023-02-07T11:09:23.047Z,1.97
2023-02-07T11:10:23.031Z,2.03
2023-02-07T11:11:23.023Z,2.10
2023-02-07T11:12:23.038Z,2.05
2023-02-07T11:13:23.014Z,2.06
2023-02-07T11:14:22.999Z,2.04
2023-02-07T11:15:22.994Z,2.03
2023-02-07T11:16:23.119Z,2.04
2023-02-07T11:17:23.983Z,2.09
2023-02-07T11:18:22.967Z,2.10
2023-02-07T11:19:22.987Z,2.11
2023-02-07T11:20:22.952Z,2.16
2023-02-07T11:21:23.030Z,2.15
2023-02-07T11:22:22.947Z,2.19
2023-02-07T11:23:22.933Z,2.18
2023-02-07T11:24:22.915Z,2.04
2023-02-07T11:25:22.920Z,2.22
2023-02-07T11:26:23.159Z,2.28
2023-02-07T11:27:22.893Z,2.35
2023-02-07T11:28:22.939Z,2.32
2023-02-07T11:29:22.872Z,2.38
2023-02-07T11:30:22.863Z,2.45
2023-02-07T11:31:23.098Z,2.27
2023-02-07T11:32:24.539Z,0.64
2023-02-07T11:33:23.103Z,0.36
2023-02-07T11:34:23.083Z,0.37
2023-02-07T11:35:23.215Z,0.64
2023-02-07T11:36:24.109Z,0.89
2023-02-07T11:37:23.052Z,1.09
2023-02-07T11:38:23.206Z,1.21
2023-02-07T11:39:23.057Z,1.29
2023-02-07T11:40:23.142Z,1.53
2023-02-07T11:41:23.019Z,1.86
2023-02-07T11:42:23.035Z,2.07
2023-02-07T11:43:23.007Z,2.15
2023-02-07T11:44:23.000Z,2.21
2023-02-07T11:45:23.002Z,2.25
2023-02-07T11:46:23.000Z,2.29
2023-02-07T11:47:23.055Z,2.39
2023-02-07T11:48:23.039Z,2.41
2023-02-07T11:49:22.959Z,2.36
2023-02-07T11:50:22.948Z,2.32
2023-02-07T11:51:22.961Z,2.42
2023-02-07T11:52:23.112Z,2.46
2023-02-07T11:53:22.919Z,2.51
2023-02-07T11:54:23.637Z,2.57
2023-02-07T11:55:22.961Z,2.63
2023-02-07T11:56:22.921Z,2.62
2023-02-07T11:57:23.041Z,2.68
2023-02-07T11:58:22.878Z,2.76
2023-02-07T11:59:22.874Z,2.78
2023-02-07T12:00:22.889Z,2.85
2023-02-07T12:01:22.845Z,2.89
2023-02-07T12:02:23.050Z,2.98
2023-02-07T12:03:22.847Z,3.02
2023-02-07T12:04:22.824Z,3.07
2023-02-07T12:05:22.895Z,3.08
2023-02-07T12:06:22.816Z,3.10
2023-02-07T12:07:23.075Z,3.21
2023-02-07T12:08:23.056Z,3.24
2023-02-07T12:09:22.790Z,3.23
2023-02-07T12:10:22.771Z,3.31
2023-02-07T12:11:22.779Z,3.36
2023-02-07T12:12:23.064Z,3.30
2023-02-07T12:13:23.065Z,3.45
2023-02-07T12:14:22.742Z,3.48
2023-02-07T12:15:22.732Z,3.61
2023-02-07T12:16:23.191Z,3.61
2023-02-07T12:17:22.757Z,3.55
2023-02-07T12:18:23.056Z,0.62
2023-02-07T12:19:22.724Z,0.34
2023-02-07T12:20:22.688Z,0.34
2023-02-07T12:21:22.679Z,0.38
2023-02-07T12:22:22.674Z,0.73
2023-02-07T12:23:41.266Z,0.83
2023-02-07T12:24:22.656Z,0.83
2023-02-07T12:25:22.641Z,0.66
2023-02-07T12:26:22.636Z,0.60
2023-02-07T12:27:22.636Z,0.61
2023-02-07T12:28:23.128Z,0.65
2023-02-07T12:29:22.606Z,0.80
2023-02-07T12:30:22.598Z,1.00
2023-02-07T12:31:22.742Z,1.32
2023-02-07T12:32:22.631Z,1.47
2023-02-07T12:33:23.066Z,1.51
2023-02-07T12:34:23.074Z,1.53
2023-02-07T12:35:22.561Z,1.61
2023-02-07T12:36:22.542Z,1.71
2023-02-07T12:37:22.537Z,1.76
2023-02-07T12:38:22.532Z,1.82
2023-02-07T12:39:22.587Z,1.90
2023-02-07T12:40:22.511Z,1.99
2023-02-07T12:41:22.548Z,2.06
2023-02-07T12:42:22.529Z,2.18
2023-02-07T12:43:22.527Z,2.24
2023-02-07T12:44:22.567Z,2.23
2023-02-07T12:45:22.487Z,2.31
2023-02-07T12:46:22.470Z,2.32
2023-02-07T12:47:22.613Z,2.26
2023-02-07T12:48:22.586Z,2.37
2023-02-07T12:49:22.577Z,2.51
2023-02-07T12:50:22.732Z,2.63
2023-02-07T12:51:22.413Z,2.65
2023-02-07T12:52:22.409Z,2.75
2023-02-07T12:53:22.615Z,2.85
2023-02-07T12:54:22.412Z,2.95
2023-02-07T12:55:22.436Z,2.97
2023-02-07T12:56:22.411Z,3.09
2023-02-07T12:57:22.368Z,3.10
2023-02-07T12:58:22.572Z,3.23
2023-02-07T12:59:22.573Z,2.88
2023-02-07T13:00:22.338Z,2.85
2023-02-07T13:01:22.401Z,3.23
2023-02-07T13:02:22.410Z,3.38
2023-02-07T13:03:22.569Z,3.37
2023-02-07T13:04:22.574Z,3.42
2023-02-07T13:05:22.309Z,3.49
2023-02-07T13:06:22.283Z,3.64
2023-02-07T13:07:22.276Z,3.62
2023-02-07T13:08:22.269Z,3.70
2023-02-07T13:09:22.581Z,3.70
2023-02-07T13:10:22.295Z,3.79
2023-02-07T13:11:22.265Z,3.82
2023-02-07T13:12:22.254Z,3.85
2023-02-07T13:13:22.609Z,3.86
2023-02-07T13:14:22.242Z,3.79
2023-02-07T13:15:22.240Z,3.79
2023-02-07T13:16:22.250Z,3.74
2023-02-07T13:17:22.222Z,3.75
2023-02-07T13:18:22.593Z,3.72
2023-02-07T13:19:22.183Z,3.66
2023-02-07T13:20:22.164Z,3.62
2023-02-07T13:21:22.152Z,3.54
2023-02-07T13:22:22.189Z,3.69
2023-02-07T13:23:22.743Z,3.73
2023-02-07T13:24:22.161Z,3.76
2023-02-07T13:25:22.121Z,3.74
2023-02-07T13:26:22.117Z,3.73
2023-02-07T13:27:22.115Z,3.72
2023-02-07T13:28:22.646Z,3.66
2023-02-07T13:29:22.133Z,3.47
2023-02-07T13:30:22.404Z,3.66
2023-02-07T13:31:22.229Z,3.65
2023-02-07T13:32:22.053Z,3.57
2023-02-07T13:33:22.042Z,3.66
2023-02-07T13:34:23.034Z,3.60
2023-02-07T13:35:22.019Z,3.60
2023-02-07T13:36:22.014Z,3.53
2023-02-07T13:37:22.022Z,3.48
2023-02-07T13:38:22.591Z,3.38
2023-02-07T13:39:22.009Z,3.41
2023-02-07T13:40:22.013Z,3.36
2023-02-07T13:41:21.982Z,3.40
2023-02-07T13:42:21.970Z,3.45
2023-02-07T13:43:22.105Z,3.43
2023-02-07T13:44:22.460Z,3.38
2023-02-07T13:45:21.950Z,3.46
2023-02-07T13:46:24.675Z,3.40
2023-02-07T13:47:21.932Z,3.41
2023-02-07T13:48:22.090Z,3.42
2023-02-07T13:49:21.929Z,3.42
2023-02-07T13:50:21.900Z,3.42
2023-02-07T13:51:21.892Z,3.42
2023-02-07T13:52:21.883Z,3.39
2023-02-07T13:53:22.093Z,3.39
2023-02-07T13:54:22.092Z,3.36
2023-02-07T13:55:21.867Z,3.32
2023-02-07T13:56:21.855Z,3.32
2023-02-07T13:57:21.880Z,3.22
2023-02-07T13:58:22.090Z,3.26
2023-02-07T13:59:22.113Z,3.28
2023-02-07T14:00:21.816Z,3.25
2023-02-07T14:01:21.880Z,3.24
2023-02-07T14:02:21.866Z,3.24
2023-02-07T14:03:21.819Z,3.12
2023-02-07T14:04:22.157Z,3.13
2023-02-07T14:05:21.773Z,3.21
2023-02-07T14:06:22.144Z,3.10
2023-02-07T14:07:21.757Z,3.20
2023-02-07T14:08:21.752Z,3.14
2023-02-07T14:09:21.749Z,3.15